createdAt,value
2019-04-21T00:00:11.228Z,10.70
2019-04-21T00:02:14.815Z,10.70
2019-04-21T00:04:29.962Z,10.70
2019-04-21T00:06:41.014Z,10.80
2019-04-21T00:08:48.778Z,10.60
2019-04-21T00:11:01.130Z,10.60
2019-04-21T00:12:59.129Z,10.70
2019-04-21T00:14:57.912Z,10.50
2019-04-21T00:16:57.986Z,10.60
2019-04-21T00:19:09.357Z,10.50
2019-04-21T00:21:14.840Z,10.40
2019-04-21T00:23:31.486Z,10.40
2019-04-21T00:25:36.203Z,10.40
2019-04-21T00:27:39.658Z,10.30
2019-04-21T00:29:47.610Z,10.10
2019-04-21T00:31:51.603Z,9.90
2019-04-21T00:33:46.374Z,9.80
2019-04-21T00:35:54.912Z,9.60
2019-04-21T00:38:22.757Z,9.80
2019-04-21T00:40:24.009Z,9.80
2019-04-21T00:42:25.671Z,10.00
2019-04-21T00:44:25.669Z,10.00
2019-04-21T00:46:35.123Z,10.10
2019-04-21T00:48:47.660Z,10.10
2019-04-21T00:51:03.359Z,10.10
2019-04-21T00:53:08.289Z,10.10
2019-04-21T00:57:26.578Z,10.00
2019-04-21T00:59:34.901Z,9.90
2019-04-21T01:01:31.244Z,10.00
2019-04-21T01:03:48.307Z,10.00
2019-04-21T01:05:54.575Z,10.10
2019-04-21T01:07:50.388Z,10.10
2019-04-21T01:09:48.784Z,9.80
2019-04-21T01:12:05.090Z,9.80
2019-04-21T01:14:13.451Z,9.90
2019-04-21T01:16:24.958Z,9.90
2019-04-21T01:18:23.344Z,9.80
2019-04-21T01:20:16.007Z,9.70
2019-04-21T01:22:12.149Z,9.70
2019-04-21T01:24:21.740Z,9.60
2019-04-21T01:26:32.773Z,9.60
2019-04-21T01:28:47.794Z,9.00
2019-04-21T01:30:55.374Z,8.90
2019-04-21T01:32:59.264Z,9.20
2019-04-21T01:35:06.757Z,9.30
2019-04-21T01:37:05.932Z,9.30
2019-04-21T01:39:22.602Z,9.30
2019-04-21T01:41:26.104Z,9.20
2019-04-21T01:43:27.896Z,9.10
2019-04-21T01:45:31.832Z,9.10
2019-04-21T01:47:36.205Z,9.10
2019-04-21T01:49:39.488Z,9.10
2019-04-21T01:52:02.938Z,9.10
2019-04-21T01:54:06.454Z,9.00
2019-04-21T01:56:24.484Z,9.10
2019-04-21T01:58:25.675Z,9.20
2019-04-21T02:00:45.088Z,9.10
2019-04-21T02:03:02.222Z,9.10
2019-04-21T02:05:10.506Z,8.90
2019-04-21T02:07:13.014Z,9.00
2019-04-21T02:09:10.114Z,9.10
2019-04-21T02:11:24.527Z,8.90
2019-04-21T02:13:21.409Z,9.00
2019-04-21T02:15:36.531Z,8.80
2019-04-21T02:17:38.688Z,9.00
2019-04-21T02:19:36.065Z,8.90
2019-04-21T02:21:39.346Z,8.80
2019-04-21T02:23:59.043Z,8.70
2019-04-21T02:26:06.200Z,8.70
2019-04-21T02:28:13.487Z,8.60
2019-04-21T02:30:18.488Z,8.70
2019-04-21T02:32:26.150Z,8.60
2019-04-21T02:34:57.517Z,8.40
2019-04-21T02:37:00.897Z,8.50
2019-04-21T02:38:56.323Z,8.60
2019-04-21T02:41:01.349Z,8.20
2019-04-21T02:45:02.083Z,8.50
2019-04-21T02:47:12.213Z,8.50
2019-04-21T02:49:22.161Z,8.50
2019-04-21T02:51:23.504Z,8.50
2019-04-21T02:53:37.421Z,8.40
2019-04-21T02:55:31.276Z,8.50
2019-04-21T02:57:43.837Z,8.50
2019-04-21T03:00:13.646Z,8.40
2019-04-21T03:04:46.737Z,8.10
2019-04-21T03:09:27.165Z,8.00
2019-04-21T03:11:17.184Z,7.90
2019-04-21T03:13:41.646Z,7.90
2019-04-21T03:15:37.618Z,7.70
2019-04-21T03:19:54.955Z,7.70
2019-04-21T03:21:58.340Z,7.80
2019-04-21T03:23:58.385Z,7.80
2019-04-21T03:26:20.401Z,7.80
2019-04-21T03:28:13.605Z,7.80
2019-04-21T03:30:29.398Z,7.40
2019-04-21T03:38:40.598Z,7.30
2019-04-21T03:40:40.987Z,7.50
2019-04-21T03:47:08.342Z,7.50
2019-04-21T03:53:24.758Z,7.40
2019-04-21T03:58:07.166Z,6.80
2019-04-21T03:59:49.254Z,6.70
2019-04-21T04:02:24.425Z,7.00
2019-04-21T04:04:44.168Z,7.30
2019-04-21T04:07:33.790Z,7.40
2019-04-21T04:09:37.830Z,7.60
2019-04-21T04:11:50.559Z,7.80
2019-04-21T04:14:04.450Z,7.90
2019-04-21T04:16:05.958Z,7.80
2019-04-21T04:17:54.399Z,7.80
2019-04-21T04:20:22.252Z,7.90
2019-04-21T04:24:16.891Z,7.80
2019-04-21T04:28:28.174Z,7.70
2019-04-21T04:30:31.309Z,7.70
2019-04-21T04:36:58.432Z,7.90
2019-04-21T04:41:54.765Z,7.60
2019-04-21T04:44:11.170Z,7.60
2019-04-21T04:46:02.655Z,7.70
2019-04-21T04:48:07.479Z,7.40
2019-04-21T04:50:06.778Z,7.30
2019-04-21T04:54:32.013Z,7.80
2019-04-21T04:56:31.428Z,8.00
2019-04-21T05:02:40.428Z,8.10
2019-04-21T05:04:59.013Z,8.00
2019-04-21T05:06:58.348Z,8.10
2019-04-21T05:11:24.002Z,8.10
2019-04-21T05:13:17.701Z,8.10
2019-04-21T05:15:16.508Z,8.10
2019-04-21T05:17:31.169Z,8.20
2019-04-21T05:19:54.013Z,8.40
2019-04-21T05:23:31.213Z,8.30
2019-04-21T05:25:33.771Z,8.40
2019-04-21T05:27:43.791Z,8.50
2019-04-21T05:29:59.968Z,8.60
2019-04-21T05:32:13.268Z,8.70
2019-04-21T05:34:27.643Z,8.70
2019-04-21T05:36:44.791Z,8.70
2019-04-21T05:39:18.397Z,8.80
2019-04-21T05:41:21.882Z,8.70
2019-04-21T05:43:35.262Z,8.80
2019-04-21T05:45:42.275Z,8.70
2019-04-21T05:48:12.073Z,8.80
2019-04-21T05:50:13.365Z,8.80
2019-04-21T05:52:14.580Z,8.90
2019-04-21T05:54:29.427Z,8.90
2019-04-21T05:56:32.174Z,9.00
2019-04-21T05:58:37.835Z,9.00
2019-04-21T06:01:06.486Z,9.00
2019-04-21T06:03:05.686Z,9.10
2019-04-21T06:05:16.639Z,9.20
2019-04-21T06:09:21.291Z,9.30
2019-04-21T06:11:29.047Z,9.30
2019-04-21T06:13:37.328Z,9.20
2019-04-21T06:15:37.294Z,9.30
2019-04-21T06:17:42.822Z,9.40
2019-04-21T06:19:53.852Z,9.50
2019-04-21T06:21:51.312Z,9.60
2019-04-21T06:24:01.018Z,9.70
2019-04-21T06:26:19.369Z,9.70
2019-04-21T06:28:14.916Z,9.80
2019-04-21T06:30:10.658Z,9.90
2019-04-21T06:32:30.440Z,9.90
2019-04-21T06:34:42.486Z,9.90
2019-04-21T06:37:21.666Z,10.10
2019-04-21T06:41:27.770Z,10.20
2019-04-21T06:43:48.557Z,10.30
2019-04-21T06:45:36.676Z,10.40
2019-04-21T06:49:44.360Z,10.50
2019-04-21T06:51:49.704Z,10.60
2019-04-21T06:53:59.259Z,10.60
2019-04-21T06:56:08.219Z,10.70
2019-04-21T06:58:07.871Z,10.70
2019-04-21T07:00:11.796Z,10.80
2019-04-21T07:04:29.673Z,10.90
2019-04-21T07:06:29.454Z,10.90
2019-04-21T07:10:37.185Z,11.00
2019-04-21T07:12:45.044Z,11.00
2019-04-21T07:14:53.254Z,11.10
2019-04-21T07:16:56.338Z,11.10
2019-04-21T07:19:12.924Z,11.20
2019-04-21T07:21:08.204Z,11.30
2019-04-21T07:23:21.737Z,11.30
2019-04-21T07:25:22.631Z,11.40
2019-04-21T07:27:30.337Z,11.40
2019-04-21T07:29:34.888Z,11.50
2019-04-21T07:31:41.730Z,11.50
2019-04-21T07:33:53.431Z,11.60
2019-04-21T07:35:43.294Z,11.70
2019-04-21T07:37:54.124Z,11.80
2019-04-21T07:39:54.582Z,11.90
2019-04-21T07:42:00.905Z,11.90
2019-04-21T07:44:00.235Z,12.00
2019-04-21T07:46:08.941Z,12.10
2019-04-21T07:48:31.861Z,12.10
2019-04-21T07:50:57.854Z,12.10
2019-04-21T07:53:16.304Z,12.20
2019-04-21T07:57:15.953Z,12.30
2019-04-21T07:59:31.553Z,12.40
2019-04-21T08:01:32.135Z,12.50
2019-04-21T08:03:39.866Z,12.60
2019-04-21T08:05:45.800Z,12.70
2019-04-21T08:07:51.875Z,12.70
2019-04-21T08:09:51.129Z,12.70
2019-04-21T08:11:58.934Z,12.90
2019-04-21T08:14:24.306Z,13.00
2019-04-21T08:16:10.601Z,13.00
2019-04-21T08:18:21.038Z,13.00
2019-04-21T08:22:48.140Z,13.20
2019-04-21T08:24:50.087Z,13.30
2019-04-21T08:27:00.206Z,13.40
2019-04-21T08:29:01.387Z,13.50
2019-04-21T08:31:10.229Z,13.80
2019-04-21T08:33:18.794Z,13.90
2019-04-21T08:37:19.587Z,14.00
2019-04-21T08:39:28.900Z,14.10
2019-04-21T08:41:31.570Z,14.10
2019-04-21T08:43:41.829Z,14.40
2019-04-21T08:45:51.233Z,14.50
2019-04-21T08:47:52.350Z,14.60
2019-04-21T08:49:57.241Z,14.50
2019-04-21T08:52:16.720Z,14.60
2019-04-21T08:54:09.506Z,14.60
2019-04-21T08:56:34.167Z,14.70
2019-04-21T08:59:03.781Z,14.70
2019-04-21T09:03:56.091Z,14.90
2019-04-21T09:06:09.221Z,15.00
2019-04-21T09:08:03.797Z,15.10
2019-04-21T09:10:09.420Z,15.20
2019-04-21T09:13:14.834Z,15.20
2019-04-21T09:15:14.408Z,15.40
2019-04-21T09:17:17.173Z,15.40
2019-04-21T09:19:38.778Z,15.50
2019-04-21T09:21:31.399Z,15.60
2019-04-21T09:23:39.246Z,15.60
2019-04-21T09:25:46.754Z,15.70
2019-04-21T09:27:46.753Z,15.90
2019-04-21T09:29:44.744Z,15.90
2019-04-21T09:31:45.173Z,15.80
2019-04-21T09:33:50.755Z,15.90
2019-04-21T09:35:59.285Z,16.10
2019-04-21T09:38:11.344Z,16.00
2019-04-21T09:40:06.751Z,16.00
2019-04-21T09:42:11.427Z,16.20
2019-04-21T09:44:24.924Z,16.20
2019-04-21T09:46:21.358Z,16.40
2019-04-21T09:48:26.646Z,16.30
2019-04-21T09:50:31.809Z,16.20
2019-04-21T09:52:45.135Z,16.40
2019-04-21T09:54:54.880Z,16.40
2019-04-21T09:56:55.990Z,16.50
2019-04-21T09:59:03.820Z,16.60
2019-04-21T10:01:09.829Z,16.70
2019-04-21T10:03:08.809Z,16.70
2019-04-21T10:05:12.297Z,16.80
2019-04-21T10:07:26.517Z,17.00
2019-04-21T10:09:22.275Z,17.20
2019-04-21T10:11:26.898Z,17.10
2019-04-21T10:13:31.854Z,17.00
2019-04-21T10:15:35.947Z,17.00
2019-04-21T10:17:47.415Z,17.00
2019-04-21T10:19:52.762Z,17.10
2019-04-21T10:21:59.449Z,17.20
2019-04-21T10:24:02.409Z,17.20
2019-04-21T10:26:06.468Z,17.20
2019-04-21T10:28:10.951Z,17.10
2019-04-21T10:30:16.232Z,17.10
2019-04-21T10:32:23.474Z,17.10
2019-04-21T10:34:27.274Z,17.10
2019-04-21T10:36:31.442Z,17.40
2019-04-21T10:38:43.232Z,17.40
2019-04-21T10:40:43.461Z,17.40
2019-04-21T10:42:48.133Z,17.30
2019-04-21T10:44:52.692Z,17.40
2019-04-21T10:46:56.843Z,17.40
2019-04-21T10:49:01.025Z,17.50
2019-04-21T10:51:05.378Z,17.60
2019-04-21T10:53:29.076Z,18.00
2019-04-21T10:55:48.550Z,18.10
2019-04-21T10:57:40.515Z,18.10
2019-04-21T10:59:47.895Z,18.10
2019-04-21T11:01:50.446Z,18.00
2019-04-21T11:04:07.488Z,17.90
2019-04-21T11:06:10.839Z,17.80
2019-04-21T11:08:22.757Z,18.00
2019-04-21T11:10:20.486Z,18.00
2019-04-21T11:12:24.311Z,18.10
2019-04-21T11:14:29.354Z,18.20
2019-04-21T11:16:33.284Z,18.20
2019-04-21T11:18:37.793Z,18.20
2019-04-21T11:20:42.771Z,18.30
2019-04-21T11:22:47.305Z,18.20
2019-04-21T11:24:51.227Z,18.30
2019-04-21T11:26:55.908Z,18.50
2019-04-21T11:29:01.113Z,18.80
2019-04-21T11:31:06.915Z,19.00
2019-04-21T11:33:11.285Z,19.70
2019-04-21T11:35:15.550Z,20.70
2019-04-21T11:37:21.977Z,21.30
2019-04-21T11:39:37.625Z,21.70
2019-04-21T11:41:35.969Z,22.00
2019-04-21T11:43:41.301Z,22.40
2019-04-21T11:45:46.303Z,22.90
2019-04-21T11:48:04.037Z,23.40
2019-04-21T11:50:08.385Z,23.60
2019-04-21T11:52:13.306Z,23.80
2019-04-21T11:54:19.110Z,24.30
2019-04-21T11:56:24.987Z,24.80
2019-04-21T11:58:29.924Z,24.90
2019-04-21T12:00:35.748Z,24.70
2019-04-21T12:02:41.487Z,24.90
2019-04-21T12:04:45.635Z,24.50
2019-04-21T12:06:51.149Z,25.10
2019-04-21T12:08:58.122Z,25.30
2019-04-21T12:11:01.299Z,24.50
2019-04-21T12:13:07.385Z,24.90
2019-04-21T12:15:13.896Z,25.30
2019-04-21T12:17:18.336Z,25.00
2019-04-21T12:19:22.908Z,25.00
2019-04-21T12:21:32.039Z,25.00
2019-04-21T12:23:32.637Z,24.90
2019-04-21T12:25:40.967Z,24.90
2019-04-21T12:27:45.687Z,24.40
2019-04-21T12:29:49.714Z,24.60
2019-04-21T12:32:20.134Z,25.30
2019-04-21T12:34:25.862Z,25.40
2019-04-21T12:36:29.949Z,25.40
2019-04-21T12:38:42.714Z,25.90
2019-04-21T12:40:39.523Z,25.90
2019-04-21T12:42:44.252Z,26.10
2019-04-21T12:44:49.642Z,26.40
2019-04-21T12:46:54.066Z,26.80
2019-04-21T12:48:58.206Z,26.80
2019-04-21T12:51:02.051Z,26.80
2019-04-21T12:53:07.443Z,27.10
2019-04-21T12:55:11.717Z,27.30
2019-04-21T12:57:15.572Z,27.50
2019-04-21T12:59:19.552Z,27.70
2019-04-21T13:01:23.414Z,27.50
2019-04-21T13:03:28.629Z,28.20
2019-04-21T13:05:33.795Z,27.70
2019-04-21T13:07:37.819Z,27.30
2019-04-21T13:09:42.094Z,26.90
2019-04-21T13:11:47.054Z,26.70
2019-04-21T13:13:51.016Z,27.10
2019-04-21T13:15:55.741Z,27.30
2019-04-21T13:18:00.510Z,27.60
2019-04-21T13:20:07.265Z,27.90
2019-04-21T13:22:12.199Z,27.70
2019-04-21T13:24:16.280Z,28.20
2019-04-21T13:26:30.587Z,28.30
2019-04-21T13:28:25.902Z,27.50
2019-04-21T13:30:30.563Z,27.80
2019-04-21T13:32:35.264Z,27.90
2019-04-21T13:34:40.083Z,28.30
2019-04-21T13:36:45.439Z,28.50
2019-04-21T13:41:41.662Z,28.50
2019-04-21T13:43:33.005Z,29.30
2019-04-21T13:45:37.390Z,29.50
2019-04-21T13:47:42.787Z,29.90
2019-04-21T13:49:47.625Z,30.10
2019-04-21T13:51:52.037Z,30.10
2019-04-21T13:53:57.633Z,29.80
2019-04-21T13:56:02.623Z,29.20
2019-04-21T13:58:08.342Z,29.30
2019-04-21T14:00:13.374Z,29.40
2019-04-21T14:02:18.505Z,29.10
2019-04-21T14:04:23.377Z,28.80
2019-04-21T14:06:27.464Z,28.40
2019-04-21T14:08:31.430Z,28.70
2019-04-21T14:10:35.618Z,28.80
2019-04-21T14:12:40.512Z,28.30
2019-04-21T14:14:44.400Z,29.00
2019-04-21T14:16:48.318Z,29.10
2019-04-21T14:18:52.364Z,28.80
2019-04-21T14:20:57.365Z,29.30
2019-04-21T14:23:13.266Z,29.90
2019-04-21T14:25:08.033Z,30.20
2019-04-21T14:27:12.193Z,30.40
2019-04-21T14:29:17.516Z,30.30
2019-04-21T14:31:22.223Z,30.30
2019-04-21T14:33:26.309Z,29.90
2019-04-21T14:35:32.811Z,29.80
2019-04-21T14:37:38.370Z,29.90
2019-04-21T14:39:52.743Z,29.40
2019-04-21T14:41:48.318Z,28.80
2019-04-21T14:43:52.967Z,28.60
2019-04-21T14:46:13.113Z,28.60
2019-04-21T14:48:35.141Z,29.10
2019-04-21T14:50:58.115Z,29.10
2019-04-21T14:53:18.378Z,29.30
2019-04-21T14:55:26.836Z,30.20
2019-04-21T14:57:31.530Z,30.40
2019-04-21T14:59:35.575Z,31.10
2019-04-21T15:01:39.966Z,31.50
2019-04-21T15:03:44.046Z,31.50
2019-04-21T15:05:49.112Z,31.40
2019-04-21T15:07:53.461Z,31.90
2019-04-21T15:10:05.746Z,32.30
2019-04-21T15:12:03.015Z,32.00
2019-04-21T15:14:08.143Z,31.20
2019-04-21T15:16:12.986Z,31.30
2019-04-21T15:18:17.216Z,30.60
2019-04-21T15:20:22.028Z,30.20
2019-04-21T15:22:26.736Z,29.80
2019-04-21T15:24:32.198Z,30.00
2019-04-21T15:26:36.275Z,30.60
2019-04-21T15:28:42.469Z,31.00
2019-04-21T15:30:47.156Z,30.60
2019-04-21T15:32:52.744Z,30.40
2019-04-21T15:34:58.274Z,30.60
2019-04-21T15:37:04.113Z,31.10
2019-04-21T15:39:09.990Z,30.70
2019-04-21T15:41:14.807Z,29.90
2019-04-21T15:43:20.320Z,30.20
2019-04-21T15:45:26.420Z,30.50
2019-04-21T15:47:31.811Z,30.70
2019-04-21T15:50:03.022Z,31.30
2019-04-21T15:52:02.014Z,31.00
2019-04-21T15:54:07.123Z,30.50
2019-04-21T15:56:20.660Z,30.30
2019-04-21T15:58:34.907Z,30.20
2019-04-21T16:00:56.579Z,30.40
2019-04-21T16:03:02.410Z,31.10
2019-04-21T16:05:10.546Z,31.30
2019-04-21T16:07:16.111Z,31.10
2019-04-21T16:09:22.393Z,31.10
2019-04-21T16:11:28.108Z,31.40
2019-04-21T16:13:34.112Z,31.40
2019-04-21T16:15:38.769Z,31.70
2019-04-21T16:17:43.619Z,31.70
2019-04-21T16:19:48.109Z,31.10
2019-04-21T16:21:52.904Z,30.70
2019-04-21T16:23:58.343Z,30.90
2019-04-21T16:26:04.401Z,30.90
2019-04-21T16:28:09.110Z,30.50
2019-04-21T16:30:15.596Z,30.80
2019-04-21T16:32:21.464Z,30.70
2019-04-21T16:34:38.982Z,31.10
2019-04-21T16:36:31.839Z,31.40
2019-04-21T16:38:35.927Z,31.50
2019-04-21T16:40:48.986Z,31.40
2019-04-21T16:42:45.901Z,31.00
2019-04-21T16:44:49.987Z,30.80
2019-04-21T16:46:53.836Z,30.90
2019-04-21T16:48:57.847Z,30.30
2019-04-21T16:51:01.899Z,29.90
2019-04-21T16:53:12.260Z,30.30
2019-04-21T16:55:41.547Z,30.60
2019-04-21T16:58:03.071Z,30.50
2019-04-21T17:00:00.239Z,29.90
2019-04-21T17:02:04.809Z,29.70
2019-04-21T17:04:08.792Z,29.40
2019-04-21T17:06:13.215Z,28.90
2019-04-21T17:08:17.802Z,28.90
2019-04-21T17:10:22.445Z,29.20
2019-04-21T17:12:28.173Z,29.20
2019-04-21T17:14:51.261Z,29.20
2019-04-21T17:17:03.847Z,28.40
2019-04-21T17:18:58.746Z,28.00
2019-04-21T17:20:55.375Z,27.80
2019-04-21T17:22:55.616Z,27.90
2019-04-21T17:25:00.647Z,27.80
2019-04-21T17:27:05.142Z,27.40
2019-04-21T17:29:10.357Z,27.30
2019-04-21T17:31:16.100Z,27.50
2019-04-21T17:33:25.725Z,26.90
2019-04-21T17:35:27.036Z,26.30
2019-04-21T17:37:32.443Z,26.40
2019-04-21T17:39:38.691Z,25.90
2019-04-21T17:41:56.448Z,26.00
2019-04-21T17:43:48.039Z,25.60
2019-04-21T17:45:53.127Z,25.40
2019-04-21T17:48:03.262Z,25.50
2019-04-21T17:50:31.607Z,25.20
2019-04-21T17:52:45.961Z,25.30
2019-04-21T17:54:52.651Z,25.00
2019-04-21T17:57:19.963Z,24.30
2019-04-21T17:59:39.734Z,23.90
2019-04-21T18:01:26.356Z,23.80
2019-04-21T18:03:55.150Z,23.30
2019-04-21T18:05:37.251Z,23.20
2019-04-21T18:07:45.016Z,23.10
2019-04-21T18:09:56.572Z,23.00
2019-04-21T18:12:00.700Z,23.00
2019-04-21T18:13:45.685Z,22.80
2019-04-21T18:16:02.630Z,22.60
2019-04-21T18:17:56.597Z,22.40
2019-04-21T18:20:01.818Z,21.90
2019-04-21T18:22:34.749Z,21.40
2019-04-21T18:24:42.768Z,21.10
2019-04-21T18:26:49.651Z,20.70
2019-04-21T18:28:46.633Z,20.20
2019-04-21T18:30:56.463Z,19.90
2019-04-21T18:33:04.657Z,19.90
2019-04-21T18:35:15.988Z,19.60
2019-04-21T18:37:47.783Z,19.50
2019-04-21T18:39:59.365Z,19.40
2019-04-21T18:42:22.159Z,19.30
2019-04-21T18:44:41.343Z,18.90
2019-04-21T18:47:03.593Z,18.90
2019-04-21T18:49:04.594Z,18.70
2019-04-21T18:51:34.703Z,18.60
2019-04-21T18:53:57.486Z,18.30
2019-04-21T18:55:49.611Z,18.10
2019-04-21T18:57:54.943Z,18.10
2019-04-21T18:59:57.579Z,18.10
2019-04-21T19:02:06.305Z,18.00
2019-04-21T19:04:14.356Z,18.00
2019-04-21T19:06:18.717Z,18.00
2019-04-21T19:08:38.757Z,17.80
2019-04-21T19:10:49.028Z,17.90
2019-04-21T19:13:20.340Z,17.80
2019-04-21T19:14:50.536Z,17.80
2019-04-21T19:17:10.736Z,17.80
2019-04-21T19:19:31.526Z,17.70
2019-04-21T19:21:10.175Z,17.50
2019-04-21T19:23:26.441Z,17.20
2019-04-21T19:25:23.218Z,17.20
2019-04-21T19:27:27.685Z,17.20
2019-04-21T19:29:35.941Z,17.10
2019-04-21T19:31:46.659Z,16.90
2019-04-21T19:33:36.061Z,16.90
2019-04-21T19:35:33.010Z,16.80
2019-04-21T19:37:43.834Z,16.90
2019-04-21T19:39:53.826Z,16.90
2019-04-21T19:42:00.747Z,17.00
2019-04-21T19:44:13.606Z,16.70
2019-04-21T19:46:19.302Z,17.00
2019-04-21T19:48:22.416Z,16.90
2019-04-21T19:50:35.056Z,16.80
2019-04-21T19:52:30.721Z,16.50
2019-04-21T19:54:32.043Z,16.50
2019-04-21T19:56:30.283Z,16.40
2019-04-21T19:58:39.077Z,16.30
2019-04-21T20:00:40.210Z,16.10
2019-04-21T20:02:44.834Z,15.90
2019-04-21T20:04:58.934Z,15.80
2019-04-21T20:07:02.924Z,16.00
2019-04-21T20:09:17.862Z,15.90
2019-04-21T20:11:23.863Z,16.20
2019-04-21T20:13:49.111Z,16.20
2019-04-21T20:15:41.963Z,16.30
2019-04-21T20:17:42.250Z,16.40
2019-04-21T20:19:30.140Z,16.30
2019-04-21T20:21:35.145Z,16.10
2019-04-21T20:23:41.081Z,16.10
2019-04-21T20:25:52.253Z,16.00
2019-04-21T20:28:00.728Z,16.10
2019-04-21T20:30:14.152Z,15.90
2019-04-21T20:32:24.580Z,15.90
2019-04-21T20:34:29.401Z,15.90
2019-04-21T20:36:37.747Z,15.60
2019-04-21T20:38:32.725Z,15.90
2019-04-21T20:40:36.233Z,15.90
2019-04-21T20:42:42.836Z,15.60
2019-04-21T20:45:13.155Z,15.40
2019-04-21T20:47:02.310Z,15.70
2019-04-21T20:49:04.142Z,15.80
2019-04-21T20:51:14.578Z,15.70
2019-04-21T20:53:14.673Z,15.70
2019-04-21T20:55:19.359Z,15.60
2019-04-21T20:57:25.906Z,15.40
2019-04-21T20:59:34.452Z,15.40
2019-04-21T21:01:39.344Z,15.30
2019-04-21T21:03:50.549Z,15.40
2019-04-21T21:05:49.693Z,15.50
2019-04-21T21:08:03.597Z,15.60
2019-04-21T21:10:04.419Z,15.50
2019-04-21T21:12:22.347Z,15.30
2019-04-21T21:14:17.557Z,15.20
2019-04-21T21:16:32.399Z,15.40
2019-04-21T21:19:04.962Z,15.40
2019-04-21T21:20:36.827Z,15.60
2019-04-21T21:22:42.288Z,15.70
2019-04-21T21:24:50.624Z,15.60
2019-04-21T21:26:54.421Z,15.70
2019-04-21T21:28:54.849Z,15.80
2019-04-21T21:31:10.678Z,15.70
2019-04-21T21:33:12.685Z,15.80
2019-04-21T21:35:17.817Z,15.80
2019-04-21T21:37:32.263Z,15.60
2019-04-21T21:39:36.120Z,15.80
2019-04-21T21:41:28.860Z,15.80
2019-04-21T21:43:26.725Z,15.60
2019-04-21T21:45:37.714Z,15.70
2019-04-21T21:47:56.256Z,15.70
2019-04-21T21:49:52.852Z,15.50
2019-04-21T21:52:00.335Z,15.40
2019-04-21T21:53:54.720Z,15.30
2019-04-21T21:55:58.865Z,15.10
2019-04-21T21:58:04.409Z,14.90
2019-04-21T22:00:12.391Z,14.80
2019-04-21T22:02:28.318Z,14.70
2019-04-21T22:04:26.812Z,14.70
2019-04-21T22:06:41.006Z,14.80
2019-04-21T22:08:34.396Z,14.90
2019-04-21T22:10:39.164Z,14.70
2019-04-21T22:12:51.635Z,14.70
2019-04-21T22:14:52.043Z,14.50
2019-04-21T22:17:11.089Z,14.80
2019-04-21T22:19:14.349Z,14.60
2019-04-21T22:21:21.081Z,14.50
2019-04-21T22:23:24.127Z,14.40
2019-04-21T22:25:24.302Z,14.40
2019-04-21T22:27:23.381Z,14.30
2019-04-21T22:29:34.944Z,14.20
2019-04-21T22:31:37.103Z,14.30
2019-04-21T22:33:47.499Z,14.10
2019-04-21T22:35:53.332Z,14.10
2019-04-21T22:38:03.006Z,14.30
2019-04-21T22:40:08.559Z,14.30
2019-04-21T22:42:11.148Z,14.20
2019-04-21T22:44:07.153Z,14.20
2019-04-21T22:46:13.675Z,14.10
2019-04-21T22:48:20.998Z,14.00
2019-04-21T22:50:28.991Z,13.80
2019-04-21T22:52:33.724Z,14.00
2019-04-21T22:54:42.791Z,13.90
2019-04-21T22:56:52.849Z,13.90
2019-04-21T22:58:50.965Z,14.10
2019-04-21T23:00:58.616Z,14.20
2019-04-21T23:03:09.727Z,14.20
2019-04-21T23:05:07.969Z,14.30
2019-04-21T23:07:17.332Z,14.40
2019-04-21T23:09:19.375Z,14.40
2019-04-21T23:11:23.624Z,14.50
2019-04-21T23:13:29.300Z,14.50
2019-04-21T23:15:41.786Z,14.60
2019-04-21T23:18:00.842Z,14.30
2019-04-21T23:20:07.015Z,14.40
2019-04-21T23:22:09.516Z,14.20
2019-04-21T23:24:16.969Z,14.10
2019-04-21T23:26:21.952Z,14.10
2019-04-21T23:28:23.993Z,14.20
2019-04-21T23:30:38.944Z,14.20
2019-04-21T23:32:34.088Z,14.20
2019-04-21T23:34:30.646Z,14.20
2019-04-21T23:36:33.657Z,14.10
2019-04-21T23:38:43.693Z,14.20
2019-04-21T23:40:48.801Z,14.10
2019-04-21T23:42:49.168Z,14.20
2019-04-21T23:44:56.519Z,14.20
2019-04-21T23:47:04.248Z,14.10
2019-04-21T23:49:19.794Z,14.10
2019-04-21T23:51:24.138Z,14.20
2019-04-21T23:53:15.765Z,14.10
2019-04-21T23:55:21.006Z,14.00
2019-04-21T23:57:32.581Z,14.00
2019-04-21T23:59:38.565Z,13.90
